sensor_id;sensor_type;location;lat;lon;timestamp;temperature;humidity
72604;DHT22;60645;56.968;24.196;2023-07-13T00:02:16;19.60;63.20
72604;DHT22;60645;56.968;24.196;2023-07-13T00:04:43;19.50;63.10
72604;DHT22;60645;56.968;24.196;2023-07-13T00:07:10;19.50;63.00
72604;DHT22;60645;56.968;24.196;2023-07-13T00:09:36;19.50;63.00
72604;DHT22;60645;56.968;24.196;2023-07-13T00:12:03;19.50;62.90
72604;DHT22;60645;56.968;24.196;2023-07-13T00:14:30;19.50;62.80
72604;DHT22;60645;56.968;24.196;2023-07-13T00:16:57;19.60;62.60
72604;DHT22;60645;56.968;24.196;2023-07-13T00:19:27;19.60;62.40
72604;DHT22;60645;56.968;24.196;2023-07-13T00:21:53;19.60;61.90
72604;DHT22;60645;56.968;24.196;2023-07-13T00:24:22;19.70;61.90
72604;DHT22;60645;56.968;24.196;2023-07-13T00:26:51;19.60;61.50
72604;DHT22;60645;56.968;24.196;2023-07-13T00:29:17;19.70;61.70
72604;DHT22;60645;56.968;24.196;2023-07-13T00:31:44;19.70;61.50
72604;DHT22;60645;56.968;24.196;2023-07-13T00:34:12;19.70;61.20
72604;DHT22;60645;56.968;24.196;2023-07-13T00:36:39;19.70;61.40
72604;DHT22;60645;56.968;24.196;2023-07-13T00:39:06;19.70;61.70
72604;DHT22;60645;56.968;24.196;2023-07-13T00:41:33;19.70;61.40
72604;DHT22;60645;56.968;24.196;2023-07-13T00:44:00;19.70;61.50
72604;DHT22;60645;56.968;24.196;2023-07-13T00:46:31;19.70;61.90
72604;DHT22;60645;56.968;24.196;2023-07-13T00:49:00;19.60;61.90
72604;DHT22;60645;56.968;24.196;2023-07-13T00:51:30;19.60;62.30
72604;DHT22;60645;56.968;24.196;2023-07-13T00:53:59;19.50;62.50
72604;DHT22;60645;56.968;24.196;2023-07-13T00:56:26;19.60;62.50
72604;DHT22;60645;56.968;24.196;2023-07-13T00:58:53;19.50;62.80
72604;DHT22;60645;56.968;24.196;2023-07-13T01:01:20;19.50;63.00
72604;DHT22;60645;56.968;24.196;2023-07-13T01:03:47;19.70;63.30
72604;DHT22;60645;56.968;24.196;2023-07-13T01:06:14;19.60;63.10
72604;DHT22;60645;56.968;24.196;2023-07-13T01:08:41;19.60;63.10
72604;DHT22;60645;56.968;24.196;2023-07-13T01:11:08;19.60;63.10
72604;DHT22;60645;56.968;24.196;2023-07-13T01:13:35;19.60;63.20
72604;DHT22;60645;56.968;24.196;2023-07-13T01:16:03;19.70;63.40
72604;DHT22;60645;56.968;24.196;2023-07-13T01:18:30;19.60;63.50
72604;DHT22;60645;56.968;24.196;2023-07-13T01:20:58;19.70;63.40
72604;DHT22;60645;56.968;24.196;2023-07-13T01:23:26;19.70;63.30
72604;DHT22;60645;56.968;24.196;2023-07-13T01:25:53;19.60;63.20
72604;DHT22;60645;56.968;24.196;2023-07-13T01:28:22;19.70;63.10
72604;DHT22;60645;56.968;24.196;2023-07-13T01:30:49;19.70;63.00
72604;DHT22;60645;56.968;24.196;2023-07-13T01:33:16;19.60;63.00
72604;DHT22;60645;56.968;24.196;2023-07-13T01:35:44;19.70;62.30
72604;DHT22;60645;56.968;24.196;2023-07-13T01:38:13;19.80;61.80
72604;DHT22;60645;56.968;24.196;2023-07-13T01:40:41;19.80;61.70
72604;DHT22;60645;56.968;24.196;2023-07-13T01:43:08;19.80;61.30
72604;DHT22;60645;56.968;24.196;2023-07-13T01:45:34;19.80;61.00
72604;DHT22;60645;56.968;24.196;2023-07-13T01:48:02;19.90;61.20
72604;DHT22;60645;56.968;24.196;2023-07-13T01:50:29;19.90;61.00
72604;DHT22;60645;56.968;24.196;2023-07-13T01:52:56;19.90;61.40
72604;DHT22;60645;56.968;24.196;2023-07-13T01:55:22;19.90;60.60
72604;DHT22;60645;56.968;24.196;2023-07-13T01:57:49;19.80;61.10
72604;DHT22;60645;56.968;24.196;2023-07-13T02:00:16;19.80;59.80
72604;DHT22;60645;56.968;24.196;2023-07-13T02:02:43;19.90;59.80
72604;DHT22;60645;56.968;24.196;2023-07-13T02:05:12;19.80;59.40
72604;DHT22;60645;56.968;24.196;2023-07-13T02:07:39;19.90;59.40
72604;DHT22;60645;56.968;24.196;2023-07-13T02:10:07;19.90;59.70
72604;DHT22;60645;56.968;24.196;2023-07-13T02:12:34;20.00;59.50
72604;DHT22;60645;56.968;24.196;2023-07-13T02:15:01;19.90;59.30
72604;DHT22;60645;56.968;24.196;2023-07-13T02:17:28;19.80;60.30
72604;DHT22;60645;56.968;24.196;2023-07-13T02:19:55;19.70;62.10
72604;DHT22;60645;56.968;24.196;2023-07-13T02:22:22;19.50;62.70
72604;DHT22;60645;56.968;24.196;2023-07-13T02:24:49;19.40;63.20
72604;DHT22;60645;56.968;24.196;2023-07-13T02:27:16;19.40;62.70
72604;DHT22;60645;56.968;24.196;2023-07-13T02:29:43;19.40;63.70
72604;DHT22;60645;56.968;24.196;2023-07-13T02:32:09;19.40;63.40
72604;DHT22;60645;56.968;24.196;2023-07-13T02:34:36;19.50;62.80
72604;DHT22;60645;56.968;24.196;2023-07-13T02:37:03;19.50;63.10
72604;DHT22;60645;56.968;24.196;2023-07-13T02:39:30;19.40;62.40
72604;DHT22;60645;56.968;24.196;2023-07-13T02:41:59;19.50;62.20
72604;DHT22;60645;56.968;24.196;2023-07-13T02:44:26;19.60;62.30
72604;DHT22;60645;56.968;24.196;2023-07-13T02:46:53;19.70;62.50
72604;DHT22;60645;56.968;24.196;2023-07-13T02:49:20;19.70;62.80
72604;DHT22;60645;56.968;24.196;2023-07-13T02:51:47;19.60;62.10
72604;DHT22;60645;56.968;24.196;2023-07-13T02:54:14;19.80;62.00
72604;DHT22;60645;56.968;24.196;2023-07-13T02:56:41;19.70;61.80
72604;DHT22;60645;56.968;24.196;2023-07-13T02:59:10;19.70;61.80
72604;DHT22;60645;56.968;24.196;2023-07-13T03:01:37;19.70;61.70
72604;DHT22;60645;56.968;24.196;2023-07-13T03:04:04;19.90;61.50
72604;DHT22;60645;56.968;24.196;2023-07-13T03:06:31;19.90;61.40
72604;DHT22;60645;56.968;24.196;2023-07-13T03:08:58;19.90;61.40
72604;DHT22;60645;56.968;24.196;2023-07-13T03:11:26;19.90;60.50
72604;DHT22;60645;56.968;24.196;2023-07-13T03:13:53;20.10;60.70
72604;DHT22;60645;56.968;24.196;2023-07-13T03:16:20;19.80;61.00
72604;DHT22;60645;56.968;24.196;2023-07-13T03:18:47;19.90;60.50
72604;DHT22;60645;56.968;24.196;2023-07-13T03:21:14;19.90;61.00
72604;DHT22;60645;56.968;24.196;2023-07-13T03:23:41;19.80;61.90
72604;DHT22;60645;56.968;24.196;2023-07-13T03:28:35;19.80;61.90
72604;DHT22;60645;56.968;24.196;2023-07-13T03:31:03;19.80;62.70
72604;DHT22;60645;56.968;24.196;2023-07-13T03:33:31;19.80;62.40
72604;DHT22;60645;56.968;24.196;2023-07-13T03:35:58;19.80;62.80
72604;DHT22;60645;56.968;24.196;2023-07-13T03:38:25;19.80;63.30
72604;DHT22;60645;56.968;24.196;2023-07-13T03:40:52;19.70;63.90
72604;DHT22;60645;56.968;24.196;2023-07-13T03:43:19;19.60;64.60
72604;DHT22;60645;56.968;24.196;2023-07-13T03:45:47;19.60;64.50
72604;DHT22;60645;56.968;24.196;2023-07-13T03:48:14;19.70;64.70
72604;DHT22;60645;56.968;24.196;2023-07-13T03:50:41;19.60;65.50
72604;DHT22;60645;56.968;24.196;2023-07-13T03:53:08;19.70;65.30
72604;DHT22;60645;56.968;24.196;2023-07-13T03:55:35;19.80;65.70
72604;DHT22;60645;56.968;24.196;2023-07-13T04:00:47;19.70;66.90
72604;DHT22;60645;56.968;24.196;2023-07-13T04:03:14;19.80;66.30
72604;DHT22;60645;56.968;24.196;2023-07-13T04:05:41;19.70;67.10
72604;DHT22;60645;56.968;24.196;2023-07-13T04:08:07;19.80;67.00
72604;DHT22;60645;56.968;24.196;2023-07-13T04:10:34;19.80;67.20
72604;DHT22;60645;56.968;24.196;2023-07-13T04:13:01;19.90;67.90
72604;DHT22;60645;56.968;24.196;2023-07-13T04:15:29;20.00;68.20
72604;DHT22;60645;56.968;24.196;2023-07-13T04:17:55;19.90;68.40
72604;DHT22;60645;56.968;24.196;2023-07-13T04:20:22;20.00;68.40
72604;DHT22;60645;56.968;24.196;2023-07-13T04:22:50;20.10;68.80
72604;DHT22;60645;56.968;24.196;2023-07-13T04:25:17;20.10;69.30
72604;DHT22;60645;56.968;24.196;2023-07-13T04:27:44;20.20;70.20
72604;DHT22;60645;56.968;24.196;2023-07-13T04:30:11;20.20;71.10
72604;DHT22;60645;56.968;24.196;2023-07-13T04:32:37;20.20;72.00
72604;DHT22;60645;56.968;24.196;2023-07-13T04:35:04;20.20;72.80
72604;DHT22;60645;56.968;24.196;2023-07-13T04:37:31;20.20;73.50
72604;DHT22;60645;56.968;24.196;2023-07-13T04:39:58;20.40;73.60
72604;DHT22;60645;56.968;24.196;2023-07-13T04:42:25;20.40;74.20
72604;DHT22;60645;56.968;24.196;2023-07-13T04:44:52;20.40;74.60
72604;DHT22;60645;56.968;24.196;2023-07-13T04:47:19;20.40;75.00
72604;DHT22;60645;56.968;24.196;2023-07-13T04:49:45;20.50;75.40
72604;DHT22;60645;56.968;24.196;2023-07-13T04:52:12;20.70;75.40
72604;DHT22;60645;56.968;24.196;2023-07-13T04:54:39;20.80;75.40
72604;DHT22;60645;56.968;24.196;2023-07-13T04:57:06;20.90;74.70
72604;DHT22;60645;56.968;24.196;2023-07-13T04:59:33;21.10;74.30
72604;DHT22;60645;56.968;24.196;2023-07-13T05:02:00;21.20;74.20
72604;DHT22;60645;56.968;24.196;2023-07-13T05:04:28;21.40;74.00
72604;DHT22;60645;56.968;24.196;2023-07-13T05:09:22;21.30;74.70
72604;DHT22;60645;56.968;24.196;2023-07-13T05:11:48;21.30;74.70
72604;DHT22;60645;56.968;24.196;2023-07-13T05:14:15;21.30;75.10
72604;DHT22;60645;56.968;24.196;2023-07-13T05:16:43;21.30;75.50
72604;DHT22;60645;56.968;24.196;2023-07-13T05:19:09;21.30;75.50
72604;DHT22;60645;56.968;24.196;2023-07-13T05:21:36;21.30;75.70
72604;DHT22;60645;56.968;24.196;2023-07-13T05:24:03;21.70;75.50
72604;DHT22;60645;56.968;24.196;2023-07-13T05:26:49;22.00;74.50
72604;DHT22;60645;56.968;24.196;2023-07-13T05:29:15;22.90;72.00
72604;DHT22;60645;56.968;24.196;2023-07-13T05:31:42;23.60;69.80
72604;DHT22;60645;56.968;24.196;2023-07-13T05:34:09;24.20;67.20
72604;DHT22;60645;56.968;24.196;2023-07-13T05:36:36;24.00;67.70
72604;DHT22;60645;56.968;24.196;2023-07-13T05:39:03;24.30;67.20
72604;DHT22;60645;56.968;24.196;2023-07-13T05:41:30;24.70;66.40
72604;DHT22;60645;56.968;24.196;2023-07-13T05:43:59;25.40;63.20
72604;DHT22;60645;56.968;24.196;2023-07-13T05:46:25;25.40;63.10
72604;DHT22;60645;56.968;24.196;2023-07-13T05:48:52;25.80;62.20
72604;DHT22;60645;56.968;24.196;2023-07-13T05:51:19;25.50;63.10
72604;DHT22;60645;56.968;24.196;2023-07-13T05:53:46;25.20;63.80
72604;DHT22;60645;56.968;24.196;2023-07-13T05:56:12;24.80;64.50
72604;DHT22;60645;56.968;24.196;2023-07-13T05:58:39;24.60;65.20
72604;DHT22;60645;56.968;24.196;2023-07-13T06:01:08;24.30;66.20
72604;DHT22;60645;56.968;24.196;2023-07-13T06:03:35;23.80;66.60
72604;DHT22;60645;56.968;24.196;2023-07-13T06:06:04;23.70;67.20
72604;DHT22;60645;56.968;24.196;2023-07-13T06:08:32;23.70;67.00
72604;DHT22;60645;56.968;24.196;2023-07-13T06:11:06;23.80;67.80
72604;DHT22;60645;56.968;24.196;2023-07-13T06:16:00;23.30;67.30
72604;DHT22;60645;56.968;24.196;2023-07-13T06:18:31;23.00;68.40
72604;DHT22;60645;56.968;24.196;2023-07-13T06:20:58;22.80;69.20
72604;DHT22;60645;56.968;24.196;2023-07-13T06:23:25;22.70;69.40
72604;DHT22;60645;56.968;24.196;2023-07-13T06:25:52;22.70;70.10
72604;DHT22;60645;56.968;24.196;2023-07-13T06:28:19;22.70;69.90
72604;DHT22;60645;56.968;24.196;2023-07-13T06:30:45;22.90;69.20
72604;DHT22;60645;56.968;24.196;2023-07-13T06:33:12;23.00;69.00
72604;DHT22;60645;56.968;24.196;2023-07-13T06:35:39;23.40;67.80
72604;DHT22;60645;56.968;24.196;2023-07-13T06:38:06;23.90;66.90
72604;DHT22;60645;56.968;24.196;2023-07-13T06:40:33;24.30;64.40
72604;DHT22;60645;56.968;24.196;2023-07-13T06:42:59;24.50;64.00
72604;DHT22;60645;56.968;24.196;2023-07-13T06:45:26;24.50;63.40
72604;DHT22;60645;56.968;24.196;2023-07-13T06:47:53;24.50;63.50
72604;DHT22;60645;56.968;24.196;2023-07-13T06:50:20;24.50;64.20
72604;DHT22;60645;56.968;24.196;2023-07-13T06:52:46;24.90;63.00
72604;DHT22;60645;56.968;24.196;2023-07-13T06:55:13;24.90;62.00
72604;DHT22;60645;56.968;24.196;2023-07-13T06:57:40;25.10;62.20
72604;DHT22;60645;56.968;24.196;2023-07-13T07:00:07;25.30;62.20
72604;DHT22;60645;56.968;24.196;2023-07-13T07:02:36;25.20;62.10
72604;DHT22;60645;56.968;24.196;2023-07-13T07:05:03;24.80;62.50
72604;DHT22;60645;56.968;24.196;2023-07-13T07:07:30;24.20;64.20
72604;DHT22;60645;56.968;24.196;2023-07-13T07:09:57;23.70;66.60
72604;DHT22;60645;56.968;24.196;2023-07-13T07:12:23;23.60;67.00
72604;DHT22;60645;56.968;24.196;2023-07-13T07:14:50;23.60;66.70
72604;DHT22;60645;56.968;24.196;2023-07-13T07:17:17;23.70;66.40
72604;DHT22;60645;56.968;24.196;2023-07-13T07:19:44;23.70;66.60
72604;DHT22;60645;56.968;24.196;2023-07-13T07:22:10;23.90;65.60
72604;DHT22;60645;56.968;24.196;2023-07-13T07:24:37;23.90;65.30
72604;DHT22;60645;56.968;24.196;2023-07-13T07:27:04;23.90;65.70
72604;DHT22;60645;56.968;24.196;2023-07-13T07:29:33;23.80;65.90
72604;DHT22;60645;56.968;24.196;2023-07-13T07:32:03;23.80;66.20
72604;DHT22;60645;56.968;24.196;2023-07-13T07:34:50;23.90;66.40
72604;DHT22;60645;56.968;24.196;2023-07-13T07:37:17;24.20;64.60
72604;DHT22;60645;56.968;24.196;2023-07-13T07:39:46;24.70;63.00
72604;DHT22;60645;56.968;24.196;2023-07-13T07:42:33;25.30;61.20
72604;DHT22;60645;56.968;24.196;2023-07-13T07:45:00;25.00;62.00
72604;DHT22;60645;56.968;24.196;2023-07-13T07:47:28;24.80;62.10
72604;DHT22;60645;56.968;24.196;2023-07-13T07:49:54;24.80;62.20
72604;DHT22;60645;56.968;24.196;2023-07-13T07:52:21;24.80;62.70
72604;DHT22;60645;56.968;24.196;2023-07-13T07:54:48;24.50;61.90
72604;DHT22;60645;56.968;24.196;2023-07-13T07:57:18;24.20;62.80
72604;DHT22;60645;56.968;24.196;2023-07-13T08:00:05;24.00;63.40
72604;DHT22;60645;56.968;24.196;2023-07-13T08:02:35;23.50;65.10
72604;DHT22;60645;56.968;24.196;2023-07-13T08:05:04;23.50;65.20
72604;DHT22;60645;56.968;24.196;2023-07-13T08:07:34;23.80;64.10
72604;DHT22;60645;56.968;24.196;2023-07-13T08:12:28;24.80;61.00
72604;DHT22;60645;56.968;24.196;2023-07-13T08:14:58;27.20;56.00
72604;DHT22;60645;56.968;24.196;2023-07-13T08:17:27;28.30;53.90
72604;DHT22;60645;56.968;24.196;2023-07-13T08:19:54;29.00;51.00
72604;DHT22;60645;56.968;24.196;2023-07-13T08:22:21;29.40;50.60
72604;DHT22;60645;56.968;24.196;2023-07-13T08:24:48;29.40;49.50
72604;DHT22;60645;56.968;24.196;2023-07-13T08:27:25;29.00;50.00
72604;DHT22;60645;56.968;24.196;2023-07-13T08:29:52;28.90;50.40
72604;DHT22;60645;56.968;24.196;2023-07-13T08:32:20;28.10;51.90
72604;DHT22;60645;56.968;24.196;2023-07-13T08:34:47;27.60;53.20
72604;DHT22;60645;56.968;24.196;2023-07-13T08:37:14;27.20;52.80
72604;DHT22;60645;56.968;24.196;2023-07-13T08:39:41;26.90;52.90
72604;DHT22;60645;56.968;24.196;2023-07-13T08:47:32;26.80;53.20
72604;DHT22;60645;56.968;24.196;2023-07-13T08:50:00;26.50;53.70
72604;DHT22;60645;56.968;24.196;2023-07-13T08:52:32;26.50;52.50
72604;DHT22;60645;56.968;24.196;2023-07-13T08:55:34;26.90;52.30
72604;DHT22;60645;56.968;24.196;2023-07-13T09:03:04;31.50;44.70
72604;DHT22;60645;56.968;24.196;2023-07-13T09:05:36;32.10;43.70
72604;DHT22;60645;56.968;24.196;2023-07-13T09:08:08;32.90;43.10
72604;DHT22;60645;56.968;24.196;2023-07-13T09:10:46;33.20;42.10
72604;DHT22;60645;56.968;24.196;2023-07-13T09:13:30;33.50;41.10
72604;DHT22;60645;56.968;24.196;2023-07-13T09:15:59;33.70;40.10
72604;DHT22;60645;56.968;24.196;2023-07-13T09:23:30;34.80;39.10
72604;DHT22;60645;56.968;24.196;2023-07-13T09:26:04;34.40;39.90
72604;DHT22;60645;56.968;24.196;2023-07-13T09:28:34;34.70;39.10
72604;DHT22;60645;56.968;24.196;2023-07-13T09:31:05;34.60;39.10
72604;DHT22;60645;56.968;24.196;2023-07-13T09:33:33;34.70;39.20
72604;DHT22;60645;56.968;24.196;2023-07-13T09:43:26;35.50;38.50
72604;DHT22;60645;56.968;24.196;2023-07-13T09:45:55;35.50;38.60
72604;DHT22;60645;56.968;24.196;2023-07-13T09:50:54;34.90;38.70
72604;DHT22;60645;56.968;24.196;2023-07-13T09:53:21;34.70;39.00
72604;DHT22;60645;56.968;24.196;2023-07-13T09:58:22;35.60;38.40
72604;DHT22;60645;56.968;24.196;2023-07-13T10:00:58;35.70;38.10
72604;DHT22;60645;56.968;24.196;2023-07-13T10:03:29;35.70;38.20
72604;DHT22;60645;56.968;24.196;2023-07-13T10:06:13;35.70;37.80
72604;DHT22;60645;56.968;24.196;2023-07-13T10:08:40;36.10;37.60
72604;DHT22;60645;56.968;24.196;2023-07-13T10:11:11;36.20;37.50
72604;DHT22;60645;56.968;24.196;2023-07-13T10:13:42;37.10;37.20
72604;DHT22;60645;56.968;24.196;2023-07-13T10:18:42;37.60;36.80
72604;DHT22;60645;56.968;24.196;2023-07-13T10:24:03;36.00;37.50
72604;DHT22;60645;56.968;24.196;2023-07-13T10:26:32;36.30;37.20
72604;DHT22;60645;56.968;24.196;2023-07-13T10:29:07;35.60;37.70
72604;DHT22;60645;56.968;24.196;2023-07-13T10:31:36;36.00;37.50
72604;DHT22;60645;56.968;24.196;2023-07-13T10:34:04;36.40;37.20
72604;DHT22;60645;56.968;24.196;2023-07-13T10:38:59;37.50;36.40
72604;DHT22;60645;56.968;24.196;2023-07-13T10:43:54;37.20;36.30
72604;DHT22;60645;56.968;24.196;2023-07-13T10:46:22;36.50;36.60
72604;DHT22;60645;56.968;24.196;2023-07-13T10:48:51;37.30;36.30
72604;DHT22;60645;56.968;24.196;2023-07-13T10:51:19;37.90;35.80
72604;DHT22;60645;56.968;24.196;2023-07-13T10:54:10;37.40;36.10
72604;DHT22;60645;56.968;24.196;2023-07-13T10:56:43;37.50;35.90
72604;DHT22;60645;56.968;24.196;2023-07-13T11:04:27;37.40;35.80
72604;DHT22;60645;56.968;24.196;2023-07-13T11:06:57;36.20;36.40
72604;DHT22;60645;56.968;24.196;2023-07-13T11:14:29;36.90;36.20
72604;DHT22;60645;56.968;24.196;2023-07-13T11:27:21;36.50;35.70
72604;DHT22;60645;56.968;24.196;2023-07-13T11:29:49;37.30;35.10
72604;DHT22;60645;56.968;24.196;2023-07-13T11:32:25;37.20;35.20
72604;DHT22;60645;56.968;24.196;2023-07-13T11:34:56;36.90;35.30
72604;DHT22;60645;56.968;24.196;2023-07-13T11:37:23;36.90;35.10
72604;DHT22;60645;56.968;24.196;2023-07-13T11:39:50;36.70;35.20
72604;DHT22;60645;56.968;24.196;2023-07-13T11:42:18;37.20;35.00
72604;DHT22;60645;56.968;24.196;2023-07-13T11:44:47;37.10;35.00
72604;DHT22;60645;56.968;24.196;2023-07-13T11:47:33;38.40;34.30
72604;DHT22;60645;56.968;24.196;2023-07-13T11:50:00;38.10;34.30
72604;DHT22;60645;56.968;24.196;2023-07-13T11:54:55;38.20;34.30
72604;DHT22;60645;56.968;24.196;2023-07-13T11:59:52;38.50;34.10
72604;DHT22;60645;56.968;24.196;2023-07-13T12:02:33;38.00;34.40
72604;DHT22;60645;56.968;24.196;2023-07-13T12:05:00;37.30;34.90
72604;DHT22;60645;56.968;24.196;2023-07-13T12:07:31;37.60;34.90
72604;DHT22;60645;56.968;24.196;2023-07-13T12:12:34;37.00;35.30
72604;DHT22;60645;56.968;24.196;2023-07-13T12:15:05;35.30;36.50
72604;DHT22;60645;56.968;24.196;2023-07-13T12:17:33;32.90;38.70
72604;DHT22;60645;56.968;24.196;2023-07-13T12:22:28;30.40;41.70
72604;DHT22;60645;56.968;24.196;2023-07-13T12:24:55;30.10;42.60
72604;DHT22;60645;56.968;24.196;2023-07-13T12:27:24;29.90;42.70
72604;DHT22;60645;56.968;24.196;2023-07-13T12:29:52;29.70;43.10
72604;DHT22;60645;56.968;24.196;2023-07-13T12:32:20;32.30;40.10
72604;DHT22;60645;56.968;24.196;2023-07-13T12:37:15;36.00;36.70
72604;DHT22;60645;56.968;24.196;2023-07-13T12:39:46;37.30;36.10
72604;DHT22;60645;56.968;24.196;2023-07-13T12:44:41;36.70;35.90
72604;DHT22;60645;56.968;24.196;2023-07-13T12:47:10;35.20;37.20
72604;DHT22;60645;56.968;24.196;2023-07-13T12:49:43;34.90;37.50
72604;DHT22;60645;56.968;24.196;2023-07-13T12:54:38;36.10;36.70
72604;DHT22;60645;56.968;24.196;2023-07-13T12:57:16;36.40;36.70
72604;DHT22;60645;56.968;24.196;2023-07-13T12:59:43;36.30;37.10
72604;DHT22;60645;56.968;24.196;2023-07-13T13:05:15;36.60;37.00
72604;DHT22;60645;56.968;24.196;2023-07-13T13:10:13;30.00;44.60
72604;DHT22;60645;56.968;24.196;2023-07-13T13:12:40;28.50;47.60
72604;DHT22;60645;56.968;24.196;2023-07-13T13:15:10;27.40;49.80
72604;DHT22;60645;56.968;24.196;2023-07-13T13:17:38;26.70;51.70
72604;DHT22;60645;56.968;24.196;2023-07-13T13:22:32;25.60;54.30
72604;DHT22;60645;56.968;24.196;2023-07-13T13:24:59;25.30;55.30
72604;DHT22;60645;56.968;24.196;2023-07-13T13:29:53;25.20;55.70
72604;DHT22;60645;56.968;24.196;2023-07-13T13:32:20;25.10;55.80
72604;DHT22;60645;56.968;24.196;2023-07-13T13:34:47;25.10;56.10
72604;DHT22;60645;56.968;24.196;2023-07-13T13:37:18;25.20;56.30
72604;DHT22;60645;56.968;24.196;2023-07-13T13:39:45;24.90;56.40
72604;DHT22;60645;56.968;24.196;2023-07-13T13:42:33;24.80;57.50
72604;DHT22;60645;56.968;24.196;2023-07-13T13:45:00;24.70;58.30
72604;DHT22;60645;56.968;24.196;2023-07-13T13:47:32;24.80;58.10
72604;DHT22;60645;56.968;24.196;2023-07-13T13:50:04;24.70;58.20
72604;DHT22;60645;56.968;24.196;2023-07-13T13:52:36;24.60;59.10
72604;DHT22;60645;56.968;24.196;2023-07-13T13:55:10;24.50;59.00
72604;DHT22;60645;56.968;24.196;2023-07-13T13:57:38;24.40;59.50
72604;DHT22;60645;56.968;24.196;2023-07-13T14:00:05;24.40;60.00
72604;DHT22;60645;56.968;24.196;2023-07-13T14:02:32;24.20;60.60
72604;DHT22;60645;56.968;24.196;2023-07-13T14:05:00;24.30;61.00
72604;DHT22;60645;56.968;24.196;2023-07-13T14:07:27;24.30;60.80
72604;DHT22;60645;56.968;24.196;2023-07-13T14:09:56;24.50;60.40
72604;DHT22;60645;56.968;24.196;2023-07-13T14:12:23;24.30;59.90
72604;DHT22;60645;56.968;24.196;2023-07-13T14:14:55;24.20;60.50
72604;DHT22;60645;56.968;24.196;2023-07-13T14:17:24;24.10;60.90
72604;DHT22;60645;56.968;24.196;2023-07-13T14:19:52;24.10;61.20
72604;DHT22;60645;56.968;24.196;2023-07-13T14:22:24;24.00;61.30
72604;DHT22;60645;56.968;24.196;2023-07-13T14:24:54;24.10;61.10
72604;DHT22;60645;56.968;24.196;2023-07-13T14:27:21;24.10;61.50
72604;DHT22;60645;56.968;24.196;2023-07-13T14:29:48;23.90;61.60
72604;DHT22;60645;56.968;24.196;2023-07-13T14:32:16;23.70;62.40
72604;DHT22;60645;56.968;24.196;2023-07-13T14:34:43;23.60;62.20
72604;DHT22;60645;56.968;24.196;2023-07-13T14:37:12;23.60;62.50
72604;DHT22;60645;56.968;24.196;2023-07-13T14:39:40;23.60;61.30
72604;DHT22;60645;56.968;24.196;2023-07-13T14:42:09;23.70;61.70
72604;DHT22;60645;56.968;24.196;2023-07-13T14:44:37;23.60;61.90
72604;DHT22;60645;56.968;24.196;2023-07-13T14:47:05;23.70;61.80
72604;DHT22;60645;56.968;24.196;2023-07-13T14:49:36;23.60;61.70
72604;DHT22;60645;56.968;24.196;2023-07-13T14:52:11;23.50;61.80
72604;DHT22;60645;56.968;24.196;2023-07-13T14:54:38;23.50;62.00
72604;DHT22;60645;56.968;24.196;2023-07-13T14:57:11;23.40;62.60
72604;DHT22;60645;56.968;24.196;2023-07-13T14:59:38;23.20;62.90
72604;DHT22;60645;56.968;24.196;2023-07-13T15:02:15;23.20;62.90
72604;DHT22;60645;56.968;24.196;2023-07-13T15:04:42;23.20;62.50
72604;DHT22;60645;56.968;24.196;2023-07-13T15:07:10;22.90;63.10
72604;DHT22;60645;56.968;24.196;2023-07-13T15:09:37;23.10;62.80
72604;DHT22;60645;56.968;24.196;2023-07-13T15:12:04;23.10;63.30
72604;DHT22;60645;56.968;24.196;2023-07-13T15:14:31;23.10;63.00
72604;DHT22;60645;56.968;24.196;2023-07-13T15:16:58;23.00;63.50
72604;DHT22;60645;56.968;24.196;2023-07-13T15:19:26;22.90;63.30
72604;DHT22;60645;56.968;24.196;2023-07-13T15:21:56;22.90;62.80
72604;DHT22;60645;56.968;24.196;2023-07-13T15:24:27;22.90;63.00
72604;DHT22;60645;56.968;24.196;2023-07-13T15:29:21;22.70;63.20
72604;DHT22;60645;56.968;24.196;2023-07-13T15:31:49;22.60;63.80
72604;DHT22;60645;56.968;24.196;2023-07-13T15:34:18;22.50;64.10
72604;DHT22;60645;56.968;24.196;2023-07-13T15:36:47;22.50;63.70
72604;DHT22;60645;56.968;24.196;2023-07-13T15:39:15;22.40;63.80
72604;DHT22;60645;56.968;24.196;2023-07-13T15:41:43;22.70;63.50
72604;DHT22;60645;56.968;24.196;2023-07-13T15:44:35;22.60;63.30
